createdAt,value
2022-07-26T00:00:43.141Z,73.77
2022-07-26T00:03:31.447Z,73.82
2022-07-26T00:06:18.955Z,73.46
2022-07-26T00:09:06.437Z,73.36
2022-07-26T00:11:53.130Z,73.84
2022-07-26T00:14:40.061Z,73.39
2022-07-26T00:17:27.918Z,73.72
2022-07-26T00:20:16.242Z,73.14
2022-07-26T00:23:03.870Z,73.45
2022-07-26T00:25:50.799Z,73.67
2022-07-26T00:28:37.936Z,74.02
2022-07-26T00:31:24.753Z,74.46
2022-07-26T00:34:11.652Z,74.65
2022-07-26T00:36:59.963Z,75.18
2022-07-26T00:39:46.865Z,75.46
2022-07-26T00:42:33.980Z,75.82
2022-07-26T00:45:21.044Z,76.16
2022-07-26T00:48:07.918Z,76.55
2022-07-26T00:50:56.138Z,77.16
2022-07-26T00:53:46.205Z,77.35
2022-07-26T00:56:34.033Z,77.90
2022-07-26T00:59:21.179Z,77.48
2022-07-26T01:02:09.517Z,77.74
2022-07-26T01:04:56.387Z,76.90
2022-07-26T01:07:44.057Z,76.84
2022-07-26T01:10:32.242Z,77.36
2022-07-26T01:13:20.784Z,77.14
2022-07-26T01:16:07.969Z,77.49
2022-07-26T01:18:54.502Z,77.99
2022-07-26T01:21:42.976Z,78.28
2022-07-26T01:24:29.929Z,79.26
2022-07-26T01:27:16.767Z,79.55
2022-07-26T01:30:03.753Z,79.18
2022-07-26T01:32:50.506Z,79.26
2022-07-26T01:35:37.260Z,79.90
2022-07-26T01:38:25.634Z,81.55
2022-07-26T01:41:12.502Z,83.28
2022-07-26T01:43:59.360Z,84.10
2022-07-26T01:46:46.080Z,84.12
2022-07-26T01:49:33.227Z,85.02
2022-07-26T01:52:19.951Z,84.54
2022-07-26T01:55:08.561Z,85.14
2022-07-26T01:57:55.373Z,84.65
2022-07-26T02:00:42.471Z,85.73
2022-07-26T02:03:29.231Z,85.75
2022-07-26T02:06:16.268Z,86.19
2022-07-26T02:09:03.054Z,86.43
2022-07-26T02:11:53.322Z,86.05
2022-07-26T02:14:40.344Z,85.66
2022-07-26T02:17:27.499Z,85.33
2022-07-26T02:20:16.852Z,84.72
2022-07-26T02:23:04.026Z,85.43
2022-07-26T02:25:50.815Z,84.13
2022-07-26T02:28:38.922Z,83.88
2022-07-26T02:31:32.129Z,84.08
2022-07-26T02:34:19.891Z,82.51
2022-07-26T02:37:06.877Z,80.88
2022-07-26T02:39:53.828Z,79.57
2022-07-26T02:42:41.003Z,79.74
2022-07-26T02:45:29.852Z,79.81
2022-07-26T02:48:16.637Z,79.41
2022-07-26T02:51:03.774Z,78.99
2022-07-26T02:53:50.786Z,78.94
2022-07-26T02:56:37.712Z,78.38
2022-07-26T02:59:24.705Z,78.60
2022-07-26T03:02:13.087Z,78.76
2022-07-26T03:05:02.161Z,78.50
2022-07-26T03:07:49.216Z,78.72
2022-07-26T03:10:36.340Z,78.94
2022-07-26T03:13:23.179Z,78.65
2022-07-26T03:16:10.322Z,78.77
2022-07-26T03:18:58.853Z,78.60
2022-07-26T03:21:45.630Z,78.11
2022-07-26T03:24:32.543Z,77.72
2022-07-26T03:27:19.538Z,77.37
2022-07-26T03:30:08.302Z,77.63
2022-07-26T03:32:55.074Z,77.85
2022-07-26T03:35:43.161Z,77.64
2022-07-26T03:38:31.168Z,77.46
2022-07-26T03:41:17.934Z,77.30
2022-07-26T03:44:05.705Z,77.19
2022-07-26T03:46:52.607Z,77.73
2022-07-26T03:49:39.802Z,77.33
2022-07-26T03:52:28.099Z,77.46
2022-07-26T03:55:33.195Z,77.48
2022-07-26T03:58:20.060Z,77.54
2022-07-26T04:01:06.848Z,77.56
2022-07-26T04:03:53.941Z,77.74
2022-07-26T04:06:41.847Z,78.10
2022-07-26T04:09:30.973Z,77.91
2022-07-26T04:12:17.698Z,78.16
2022-07-26T04:15:05.779Z,78.47
2022-07-26T04:17:52.731Z,78.64
2022-07-26T04:20:39.602Z,78.94
2022-07-26T04:23:26.814Z,79.21
2022-07-26T04:26:15.021Z,79.58
2022-07-26T04:29:01.765Z,79.98
2022-07-26T04:31:48.710Z,80.23
2022-07-26T04:34:35.651Z,80.09
2022-07-26T04:37:22.564Z,80.65
2022-07-26T04:40:11.115Z,80.16
2022-07-26T04:43:01.606Z,80.65
2022-07-26T04:45:49.373Z,80.48
2022-07-26T04:48:37.944Z,80.03
2022-07-26T04:51:25.606Z,79.66
2022-07-26T04:54:12.518Z,79.00
2022-07-26T04:56:59.483Z,78.85
2022-07-26T04:59:58.168Z,79.24
2022-07-26T05:02:56.743Z,79.33
2022-07-26T05:05:43.764Z,79.14
2022-07-26T05:08:30.545Z,79.15
2022-07-26T05:11:17.507Z,79.14
2022-07-26T05:14:04.812Z,78.70
2022-07-26T05:16:53.356Z,78.73
2022-07-26T05:19:40.479Z,78.72
2022-07-26T05:22:27.400Z,78.29
2022-07-26T05:25:14.155Z,78.46
2022-07-26T05:28:01.211Z,77.96
2022-07-26T05:30:47.982Z,77.95
2022-07-26T05:33:36.270Z,78.69
2022-07-26T05:36:23.349Z,78.58
2022-07-26T05:39:14.216Z,77.83
2022-07-26T05:42:02.818Z,77.89
2022-07-26T05:44:49.683Z,78.67
2022-07-26T05:47:38.066Z,76.80
2022-07-26T05:50:26.525Z,76.34
2022-07-26T05:53:13.400Z,76.14
2022-07-26T05:56:00.294Z,76.28
2022-07-26T05:58:47.260Z,76.13
2022-07-26T06:01:34.927Z,76.73
2022-07-26T06:04:22.960Z,76.30
2022-07-26T06:07:13.246Z,75.64
2022-07-26T06:10:00.466Z,74.26
2022-07-26T06:12:47.277Z,75.46
2022-07-26T06:15:34.421Z,75.19
2022-07-26T06:18:21.689Z,75.10
2022-07-26T06:21:08.878Z,75.07
2022-07-26T06:23:57.105Z,75.62
2022-07-26T06:26:44.570Z,75.87
2022-07-26T06:29:32.084Z,76.00
2022-07-26T06:32:19.611Z,76.61
2022-07-26T06:35:07.049Z,76.73
2022-07-26T06:37:53.992Z,76.42
2022-07-26T06:40:42.711Z,76.59
2022-07-26T06:43:29.886Z,75.28
2022-07-26T06:46:17.047Z,73.91
2022-07-26T06:49:04.400Z,75.13
2022-07-26T06:51:54.168Z,76.20
2022-07-26T06:54:41.261Z,76.97
2022-07-26T06:57:29.610Z,76.94
2022-07-26T07:00:17.641Z,77.56
2022-07-26T07:03:04.786Z,77.62
2022-07-26T07:05:51.407Z,77.80
2022-07-26T07:08:38.270Z,79.10
2022-07-26T07:11:27.017Z,78.35
2022-07-26T07:14:16.448Z,78.12
2022-07-26T07:17:03.188Z,76.88
2022-07-26T07:19:57.741Z,77.20
2022-07-26T07:22:44.394Z,78.04
2022-07-26T07:25:31.389Z,77.26
2022-07-26T07:28:18.521Z,77.51
2022-07-26T07:31:07.468Z,77.13
2022-07-26T07:33:55.353Z,77.46
2022-07-26T07:36:42.728Z,77.26
2022-07-26T07:39:38.342Z,77.18
2022-07-26T07:42:25.409Z,77.12
2022-07-26T07:45:12.559Z,77.87
2022-07-26T07:48:00.791Z,78.46
2022-07-26T07:50:47.498Z,77.50
2022-07-26T07:53:34.652Z,74.71
2022-07-26T07:56:22.574Z,72.74
2022-07-26T07:59:10.563Z,69.43
2022-07-26T08:01:57.683Z,68.04
2022-07-26T08:04:45.893Z,68.46
2022-07-26T08:07:32.787Z,66.55
2022-07-26T08:10:22.921Z,68.56
2022-07-26T08:13:10.016Z,69.64
2022-07-26T08:15:59.456Z,69.97
2022-07-26T08:18:57.066Z,68.98
2022-07-26T08:21:46.802Z,68.35
2022-07-26T08:24:34.020Z,66.58
2022-07-26T08:27:21.212Z,66.30
2022-07-26T08:30:09.000Z,67.69
2022-07-26T08:32:56.062Z,65.80
2022-07-26T08:35:43.203Z,65.14
2022-07-26T08:38:31.455Z,64.55
2022-07-26T08:41:18.938Z,62.99
2022-07-26T08:44:07.032Z,61.73
2022-07-26T08:46:54.265Z,61.68
2022-07-26T08:49:41.811Z,62.66
2022-07-26T08:52:28.790Z,65.57
2022-07-26T08:55:20.123Z,67.35
2022-07-26T08:58:07.180Z,68.63
2022-07-26T09:01:05.325Z,69.37
2022-07-26T09:03:52.364Z,69.58
2022-07-26T09:06:39.641Z,68.33
2022-07-26T09:09:27.699Z,66.43
2022-07-26T09:12:18.281Z,67.36
2022-07-26T09:15:07.486Z,65.99
2022-07-26T09:17:56.602Z,63.29
2022-07-26T09:20:47.725Z,64.16
2022-07-26T09:23:41.181Z,64.82
2022-07-26T09:26:29.066Z,64.61
2022-07-26T09:29:17.246Z,64.85
2022-07-26T09:32:12.743Z,66.22
2022-07-26T09:35:44.251Z,77.87
2022-07-26T09:38:18.787Z,82.66
2022-07-26T09:41:18.608Z,88.54
2022-07-26T09:44:07.332Z,93.74
2022-07-26T09:46:57.378Z,93.83
2022-07-26T09:49:44.295Z,96.31
2022-07-26T09:52:31.126Z,98.67
2022-07-26T09:55:18.028Z,98.29
2022-07-26T09:58:06.427Z,97.31
2022-07-26T10:00:53.270Z,98.22
2022-07-26T10:03:41.532Z,100.00
2022-07-26T10:06:30.489Z,100.00
2022-07-26T10:09:18.605Z,100.00
2022-07-26T10:12:08.882Z,100.00
2022-07-26T10:14:56.322Z,100.00
2022-07-26T10:17:43.393Z,100.00
2022-07-26T10:20:44.422Z,97.43
2022-07-26T10:23:39.969Z,98.92
2022-07-26T10:26:43.261Z,97.75
2022-07-26T10:29:31.392Z,93.59
2022-07-26T10:32:20.516Z,92.54
2022-07-26T10:35:30.151Z,92.56
2022-07-26T10:38:26.421Z,89.10
2022-07-26T10:41:13.354Z,90.55
2022-07-26T10:44:22.330Z,91.36
2022-07-26T10:47:18.529Z,90.84
2022-07-26T10:50:06.931Z,89.69
2022-07-26T10:52:59.666Z,90.42
2022-07-26T10:55:49.870Z,88.78
2022-07-26T10:58:43.353Z,89.48
2022-07-26T11:01:34.554Z,89.51
2022-07-26T11:04:22.450Z,90.22
2022-07-26T11:07:09.284Z,90.31
2022-07-26T11:09:57.389Z,84.19
2022-07-26T11:12:45.838Z,84.35
2022-07-26T11:15:32.935Z,82.48
2022-07-26T11:18:23.331Z,81.63
2022-07-26T11:21:13.090Z,80.85
2022-07-26T11:24:03.680Z,79.81
2022-07-26T11:26:50.718Z,79.88
2022-07-26T11:29:41.086Z,80.18
2022-07-26T11:32:28.039Z,79.99
2022-07-26T11:35:14.953Z,79.80
2022-07-26T11:38:11.912Z,79.23
2022-07-26T11:40:59.252Z,79.75
2022-07-26T11:43:46.369Z,78.49
2022-07-26T11:46:38.294Z,79.39
2022-07-26T11:49:52.382Z,79.06
2022-07-26T11:52:34.442Z,79.11
2022-07-26T11:55:27.285Z,78.58
2022-07-26T11:58:14.524Z,77.92
2022-07-26T12:01:01.463Z,76.27
2022-07-26T12:03:52.137Z,76.05
2022-07-26T12:06:39.750Z,75.20
2022-07-26T12:09:32.002Z,73.75
2022-07-26T12:12:24.124Z,71.31
2022-07-26T12:15:13.311Z,73.27
2022-07-26T12:18:00.817Z,71.38
2022-07-26T12:21:05.468Z,73.66
2022-07-26T12:23:53.064Z,72.84
2022-07-26T12:26:40.713Z,71.13
2022-07-26T12:29:32.996Z,70.89
2022-07-26T12:32:21.780Z,71.99
2022-07-26T12:35:10.744Z,71.57
2022-07-26T12:37:59.209Z,71.12
2022-07-26T12:40:47.385Z,69.38
2022-07-26T12:43:40.091Z,70.08
2022-07-26T12:46:27.016Z,67.87
2022-07-26T12:49:13.975Z,66.35
2022-07-26T12:52:01.013Z,65.01
2022-07-26T12:54:51.728Z,63.23
2022-07-26T12:57:38.662Z,63.75
2022-07-26T13:00:33.056Z,63.94
2022-07-26T13:03:20.735Z,63.74
2022-07-26T13:06:08.092Z,62.39
2022-07-26T13:08:56.341Z,61.14
2022-07-26T13:11:44.466Z,60.69
2022-07-26T13:14:32.667Z,62.90
2022-07-26T13:17:19.938Z,64.25
2022-07-26T13:20:07.843Z,64.70
2022-07-26T13:22:54.424Z,63.88
2022-07-26T13:25:41.469Z,64.31
2022-07-26T13:28:30.983Z,65.31
2022-07-26T13:31:17.809Z,64.15
2022-07-26T13:34:05.063Z,63.71
2022-07-26T13:36:52.035Z,64.16
2022-07-26T13:39:38.925Z,65.56
2022-07-26T13:42:26.113Z,64.27
2022-07-26T13:45:14.348Z,64.11
2022-07-26T13:48:01.350Z,62.34
2022-07-26T13:50:48.930Z,61.11
2022-07-26T13:53:36.318Z,59.93
2022-07-26T13:56:39.409Z,60.38
2022-07-26T13:59:26.574Z,59.78
2022-07-26T14:02:15.241Z,60.35
2022-07-26T14:05:01.985Z,60.68
2022-07-26T14:07:49.149Z,61.98
2022-07-26T14:10:39.471Z,62.15
2022-07-26T14:13:26.181Z,61.72
2022-07-26T14:16:13.224Z,62.14
2022-07-26T14:19:01.345Z,61.85
2022-07-26T14:21:59.574Z,62.59
2022-07-26T14:24:47.188Z,63.45
2022-07-26T14:27:34.294Z,62.25
2022-07-26T14:30:22.113Z,63.96
2022-07-26T14:33:09.481Z,63.92
2022-07-26T14:35:57.464Z,63.13
2022-07-26T14:38:45.453Z,62.51
2022-07-26T14:41:32.537Z,62.19
2022-07-26T14:44:19.569Z,62.20
2022-07-26T14:47:08.575Z,62.18
2022-07-26T14:49:55.411Z,62.00
2022-07-26T14:52:46.660Z,61.04
2022-07-26T14:55:33.533Z,61.48
2022-07-26T14:58:20.690Z,61.27
2022-07-26T15:01:07.804Z,61.23
2022-07-26T15:03:54.596Z,60.84
2022-07-26T15:06:41.670Z,61.66
2022-07-26T15:09:29.922Z,59.35
2022-07-26T15:12:16.793Z,61.32
2022-07-26T15:15:04.065Z,60.69
2022-07-26T15:17:50.931Z,58.82
2022-07-26T15:20:39.591Z,58.29
2022-07-26T15:23:27.224Z,58.20
2022-07-26T15:26:15.220Z,57.79
2022-07-26T15:29:01.868Z,56.49
2022-07-26T15:31:50.347Z,56.08
2022-07-26T15:34:37.025Z,55.85
2022-07-26T15:37:24.744Z,56.00
2022-07-26T15:40:12.689Z,55.86
2022-07-26T15:43:00.740Z,54.11
2022-07-26T15:45:48.010Z,54.57
2022-07-26T15:48:36.541Z,54.21
2022-07-26T15:51:24.584Z,55.85
2022-07-26T15:54:14.035Z,58.26
2022-07-26T15:57:02.211Z,57.06
2022-07-26T15:59:50.619Z,57.47
2022-07-26T16:02:37.660Z,58.44
2022-07-26T16:05:24.568Z,57.46
2022-07-26T16:08:11.353Z,57.45
2022-07-26T16:10:58.511Z,56.50
2022-07-26T16:13:45.619Z,56.08
2022-07-26T16:16:34.056Z,56.69
2022-07-26T16:19:20.707Z,56.01
2022-07-26T16:22:08.216Z,56.59
2022-07-26T16:24:55.984Z,56.31
2022-07-26T16:27:43.704Z,55.66
2022-07-26T16:30:30.854Z,55.14
2022-07-26T16:33:19.157Z,55.64
2022-07-26T16:36:06.823Z,55.48
2022-07-26T16:38:54.097Z,55.01
2022-07-26T16:41:40.915Z,55.30
2022-07-26T16:44:28.112Z,55.38
2022-07-26T16:47:14.933Z,55.46
2022-07-26T16:50:03.340Z,53.22
2022-07-26T16:52:50.179Z,54.97
2022-07-26T16:55:36.939Z,55.19
2022-07-26T16:58:23.987Z,55.86
2022-07-26T17:01:11.072Z,56.31
2022-07-26T17:03:58.062Z,55.80
2022-07-26T17:07:07.638Z,55.88
2022-07-26T17:09:52.993Z,56.32
2022-07-26T17:12:40.921Z,56.32
2022-07-26T17:15:28.120Z,55.81
2022-07-26T17:18:14.974Z,56.02
2022-07-26T17:21:02.735Z,55.70
2022-07-26T17:23:51.270Z,56.03
2022-07-26T17:26:38.219Z,55.84
2022-07-26T17:29:27.273Z,55.45
2022-07-26T17:32:14.215Z,55.67
2022-07-26T17:35:00.980Z,55.48
2022-07-26T17:37:47.948Z,55.84
2022-07-26T17:40:36.300Z,56.04
2022-07-26T17:43:25.449Z,56.10
2022-07-26T17:46:23.546Z,56.73
2022-07-26T17:49:11.018Z,56.99
2022-07-26T17:51:58.622Z,56.69
2022-07-26T17:54:45.492Z,56.01
2022-07-26T17:57:33.625Z,56.42
2022-07-26T18:00:28.844Z,56.33
2022-07-26T18:03:16.159Z,57.11
2022-07-26T18:06:02.960Z,56.88
2022-07-26T18:08:49.847Z,56.74
2022-07-26T18:11:38.614Z,56.76
2022-07-26T18:14:26.591Z,57.17
2022-07-26T18:17:13.402Z,57.35
2022-07-26T18:20:00.179Z,57.45
2022-07-26T18:22:50.431Z,57.15
2022-07-26T18:25:37.560Z,56.98
2022-07-26T18:28:24.466Z,56.97
2022-07-26T18:31:12.536Z,56.73
2022-07-26T18:34:04.319Z,56.01
2022-07-26T18:36:53.167Z,55.61
2022-07-26T18:39:40.165Z,55.97
2022-07-26T18:42:27.407Z,55.22
2022-07-26T18:45:14.201Z,55.24
2022-07-26T18:48:02.430Z,54.83
2022-07-26T18:50:52.228Z,54.31
2022-07-26T18:53:40.173Z,54.69
2022-07-26T18:56:28.069Z,54.96
2022-07-26T18:59:15.248Z,55.49
2022-07-26T19:02:01.960Z,55.89
2022-07-26T19:04:50.198Z,56.12
2022-07-26T19:07:38.166Z,56.06
2022-07-26T19:10:25.133Z,55.88
2022-07-26T19:13:11.957Z,56.23
2022-07-26T19:15:58.807Z,56.45
2022-07-26T19:18:49.419Z,56.15
2022-07-26T19:21:40.807Z,56.48
2022-07-26T19:24:28.745Z,56.61
2022-07-26T19:27:15.984Z,56.92
2022-07-26T19:30:02.981Z,57.39
2022-07-26T19:32:49.961Z,57.21
2022-07-26T19:35:37.058Z,57.47
2022-07-26T19:38:25.649Z,58.27
2022-07-26T19:41:15.903Z,58.08
2022-07-26T19:44:03.210Z,58.34
2022-07-26T19:46:55.526Z,57.99
2022-07-26T19:49:44.067Z,58.26
2022-07-26T19:52:31.154Z,58.35
2022-07-26T19:55:19.209Z,58.20
2022-07-26T19:58:05.971Z,58.32
2022-07-26T20:00:53.194Z,57.88
2022-07-26T20:03:40.130Z,57.82
2022-07-26T20:06:28.201Z,57.68
2022-07-26T20:09:15.528Z,57.92
2022-07-26T20:12:05.711Z,58.11
2022-07-26T20:14:52.791Z,57.47
2022-07-26T20:17:41.261Z,57.84
2022-07-26T20:20:28.079Z,58.30
2022-07-26T20:23:15.222Z,58.26
2022-07-26T20:26:02.247Z,58.33
2022-07-26T20:28:50.975Z,58.99
2022-07-26T20:31:38.051Z,59.12
2022-07-26T20:34:25.138Z,59.07
2022-07-26T20:37:12.219Z,59.03
2022-07-26T20:39:59.283Z,59.17
2022-07-26T20:42:47.643Z,59.27
2022-07-26T20:45:38.896Z,59.71
2022-07-26T20:48:25.657Z,59.49
2022-07-26T20:51:13.620Z,59.30
2022-07-26T20:54:00.985Z,59.70
2022-07-26T20:56:47.842Z,59.34
2022-07-26T20:59:35.845Z,59.93
2022-07-26T21:02:24.370Z,59.70
2022-07-26T21:05:11.811Z,60.04
2022-07-26T21:07:59.771Z,60.54
2022-07-26T21:10:47.601Z,61.08
2022-07-26T21:13:34.730Z,61.66
2022-07-26T21:16:21.529Z,61.87
2022-07-26T21:19:09.968Z,62.43
2022-07-26T21:21:57.063Z,61.54
2022-07-26T21:24:43.735Z,60.76
2022-07-26T21:27:30.763Z,61.18
2022-07-26T21:30:17.700Z,61.84
2022-07-26T21:33:05.386Z,62.01
2022-07-26T21:35:53.798Z,62.16
2022-07-26T21:38:40.734Z,62.01
2022-07-26T21:41:27.430Z,62.43
2022-07-26T21:44:14.574Z,62.50
2022-07-26T21:47:01.542Z,62.89
2022-07-26T21:49:48.525Z,62.69
2022-07-26T21:52:36.835Z,62.65
2022-07-26T21:55:23.504Z,63.01
2022-07-26T21:58:10.695Z,62.66
2022-07-26T22:01:06.095Z,62.05
2022-07-26T22:03:53.625Z,63.11
2022-07-26T22:06:40.549Z,63.52
2022-07-26T22:09:28.941Z,63.44
2022-07-26T22:12:15.788Z,62.85
2022-07-26T22:15:02.787Z,63.03
2022-07-26T22:17:49.914Z,63.56
2022-07-26T22:20:36.940Z,63.89
2022-07-26T22:23:29.724Z,63.31
2022-07-26T22:26:17.993Z,63.26
2022-07-26T22:29:04.801Z,63.10
2022-07-26T22:31:51.878Z,63.55
2022-07-26T22:34:38.714Z,64.42
2022-07-26T22:37:25.708Z,64.23
2022-07-26T22:40:13.734Z,64.44
2022-07-26T22:43:02.335Z,63.90
2022-07-26T22:45:49.409Z,64.20
2022-07-26T22:48:38.627Z,64.64
2022-07-26T22:51:26.444Z,64.82
2022-07-26T22:54:13.682Z,64.95
2022-07-26T22:57:00.486Z,64.98
2022-07-26T22:59:48.826Z,65.36
2022-07-26T23:02:36.729Z,65.56
2022-07-26T23:05:29.328Z,65.92
2022-07-26T23:08:48.052Z,66.09
2022-07-26T23:11:35.062Z,66.19
2022-07-26T23:14:22.183Z,66.21
2022-07-26T23:17:10.610Z,66.91
2022-07-26T23:19:57.189Z,67.09
2022-07-26T23:22:44.291Z,67.54
2022-07-26T23:25:31.619Z,68.10
2022-07-26T23:28:24.902Z,68.21
2022-07-26T23:31:24.838Z,69.33
2022-07-26T23:34:13.171Z,69.32
2022-07-26T23:37:00.453Z,69.67
2022-07-26T23:39:47.481Z,69.83
2022-07-26T23:42:34.165Z,70.66
2022-07-26T23:45:21.277Z,70.51
2022-07-26T23:48:08.766Z,70.78
2022-07-26T23:50:57.086Z,71.15
2022-07-26T23:53:43.937Z,71.51
2022-07-26T23:56:31.005Z,71.76
2022-07-26T23:59:18.329Z,71.85
